This is the latest recevied weather packets stored in our database for station/object CA3SQH-10. If no packets are shown the sender has not sent any weather packets the latest 10 day(s).
| Time | Temp. | Humidity | Pressure | Rain* | Wind** | Luminosity | Snow |
|---|---|---|---|---|---|---|---|
| 1777708741 | 11.11° C | 66% | 939.9 hPa | - | - | - | - |
| 1777707841 | 11.11° C | 66% | 940 hPa | - | - | - | - |
| 1777706941 | 11.11° C | 68% | 940.2 hPa | - | - | - | - |
| 1777706041 | 11.11° C | 68% | 940.4 hPa | - | - | - | - |
| 1777705140 | 11.11° C | 68% | 940.5 hPa | - | - | - | - |
| 1777704240 | 11.11° C | 72% | 940.6 hPa | - | - | - | - |
| 1777703340 | 12.22° C | 66% | 940.7 hPa | - | - | - | - |
| 1777702439 | 12.22° C | 65% | 940.9 hPa | - | - | - | - |
| 1777701538 | 12.22° C | 67% | 941.1 hPa | - | - | - | - |
| 1777700643 | 11.67° C | 66% | 941.2 hPa | - | - | - | - |
| 1777699743 | 12.22° C | 64% | 941.4 hPa | - | - | - | - |
| 1777698842 | 12.22° C | 67% | 941.4 hPa | - | - | - | - |
| 1777697942 | 12.78° C | 66% | 941.5 hPa | - | - | - | - |
| 1777697042 | 12.78° C | 64% | 941.4 hPa | - | - | - | - |
| 1777696142 | 12.78° C | 67% | 941.6 hPa | - | - | - | - |
| 1777695242 | 12.22° C | 70% | 941.8 hPa | - | - | - | - |
| 1777694341 | 12.78° C | 67% | 941.9 hPa | - | - | - | - |
| 1777693441 | 12.78° C | 68% | 942.1 hPa | - | - | - | - |
| 1777692541 | 13.33° C | 69% | 942.2 hPa | - | - | - | - |
| 1777691641 | 12.78° C | 69% | 942.3 hPa | - | - | - | - |
| 1777690741 | 13.33° C | 69% | 942.3 hPa | - | - | - | - |
| 1777689840 | 13.89° C | 67% | 942.3 hPa | - | - | - | - |
| 1777688940 | 13.89° C | 67% | 942.3 hPa | - | - | - | - |
| 1777688040 | 13.89° C | 68% | 942.4 hPa | - | - | - | - |
| 1777687140 | 13.33° C | 69% | 942.5 hPa | - | - | - | - |
* Rain since midnight (hover to see other rain measurements)
** Current wind speed in m/s (hover to see current wind gust speed)